Time;durP1;ratioP1;P1;durP2;ratioP2;P2;SDS_P1;SDS_P2;PMS_P1;PMS_P2;Temp;Humidity;BMP_temperature;BMP_pressure;BME280_temperature;BME280_humidity;BME280_pressure;Samples;Min_cycle;Max_cycle;Signal;HPM_P1;HPM_P2
2024/03/02 00:00:13;;;;;;;0.30;0.30;;;9.20;1.00;;;;;;5071715;28;20213;-85
2024/03/02 00:02:46;;;;;;;0.30;0.30;;;9.20;1.00;;;;;;5055133;28;20302;-84
2024/03/02 00:05:14;;;;;;;0.20;0.20;;;9.20;1.00;;;;;;5038696;28;20323;-84
2024/03/02 00:07:55;;;;;;;0.57;0.57;;;9.20;1.00;;;;;;5054733;28;20304;-86
2024/03/02 00:10:39;;;;;;;0.30;0.30;;;9.20;1.00;;;;;;5039472;28;20355;-87
2024/03/02 00:13:06;;;;;;;0.50;0.50;;;9.20;1.00;;;;;;5054505;28;20224;-83
2024/03/02 00:15:50;;;;;;;1.03;0.30;;;9.10;1.00;;;;;;5054473;28;20297;-84
2024/03/02 00:18:45;;;;;;;1.33;0.83;;;9.20;1.00;;;;;;5038235;28;20217;-84
2024/03/02 00:21:14;;;;;;;1.30;1.20;;;9.10;1.00;;;;;;5058294;28;20227;-83
2024/03/02 00:23:40;;;;;;;0.50;0.50;;;9.20;99.90;;;;;;5037886;28;20236;-85
2024/03/02 00:26:06;;;;;;;0.20;0.20;;;9.20;99.90;;;;;;5072923;28;20193;-85
2024/03/02 00:28:33;;;;;;;0.27;0.27;;;9.20;99.90;;;;;;5054577;28;20546;-83
2024/03/02 00:30:59;;;;;;;0.67;0.67;;;9.10;99.90;;;;;;5072108;28;20271;-86
2024/03/02 00:33:47;;;;;;;0.40;0.40;;;9.00;99.90;;;;;;5072026;28;20217;-85
2024/03/02 00:36:15;;;;;;;0.63;0.53;;;9.10;99.90;;;;;;5072168;28;20291;-85
2024/03/02 00:38:49;;;;;;;0.50;0.50;;;8.90;1.00;;;;;;5054437;28;20200;-84
2024/03/02 00:41:23;;;;;;;1.37;1.10;;;8.80;1.00;;;;;;5072369;28;20200;-85
2024/03/02 00:43:55;;;;;;;3.30;0.97;;;8.70;1.00;;;;;;5071841;28;20225;-84
2024/03/02 00:46:24;;;;;;;0.40;0.40;;;8.70;99.90;;;;;;5071908;28;20247;-87
2024/03/02 00:48:54;;;;;;;1.50;0.97;;;8.60;99.90;;;;;;5053869;28;20336;-83
2024/03/02 00:51:25;;;;;;;0.50;0.50;;;8.60;99.90;;;;;;5053998;28;20221;-83
2024/03/02 00:53:55;;;;;;;0.20;0.20;;;8.50;99.90;;;;;;5053880;28;20261;-84
2024/03/02 00:56:21;;;;;;;0.70;0.70;;;8.30;99.90;;;;;;5038536;28;20198;-87
2024/03/02 00:58:47;;;;;;;1.60;0.40;;;8.30;99.90;;;;;;5053906;28;20770;-85
2024/03/02 01:01:13;;;;;;;1.23;1.23;;;8.30;99.90;;;;;;5037626;28;20225;-86
2024/03/02 01:03:39;;;;;;;0.40;0.40;;;8.30;99.90;;;;;;5037530;28;20240;-87
2024/03/02 01:06:05;;;;;;;0.40;0.40;;;8.20;99.90;;;;;;5037544;28;20591;-84
2024/03/02 01:08:30;;;;;;;0.40;0.40;;;8.10;99.90;;;;;;5072120;28;20212;-86
2024/03/02 01:10:56;;;;;;;0.87;0.87;;;8.20;99.90;;;;;;5038437;28;20225;-84
2024/03/02 01:13:23;;;;;;;1.00;0.57;;;8.20;99.90;;;;;;5040913;28;20213;-84
2024/03/02 01:15:49;;;;;;;0.20;0.20;;;8.20;99.90;;;;;;5057357;28;20228;-84
2024/03/02 01:18:15;;;;;;;0.50;0.50;;;8.10;99.90;;;;;;5057462;28;20217;-82
2024/03/02 01:20:41;;;;;;;0.60;0.60;;;8.20;99.90;;;;;;5040474;28;20201;-83
2024/03/02 01:23:07;;;;;;;0.40;0.40;;;8.20;99.90;;;;;;5057688;28;20256;-84
2024/03/02 01:25:32;;;;;;;0.50;0.50;;;8.30;99.90;;;;;;5040755;28;20221;-84
2024/03/02 01:27:58;;;;;;;1.50;0.50;;;8.30;99.90;;;;;;5041087;28;20676;-85
2024/03/02 01:30:24;;;;;;;0.30;0.30;;;8.40;99.90;;;;;;5074148;28;20680;-84
2024/03/02 01:32:50;;;;;;;0.67;0.57;;;8.40;99.90;;;;;;5040510;28;20235;-84
2024/03/02 01:35:15;;;;;;;0.43;0.43;;;8.50;99.90;;;;;;5057828;28;20197;-84
2024/03/02 01:37:41;;;;;;;0.80;0.80;;;8.50;99.90;;;;;;5057447;28;20248;-86
2024/03/02 01:40:10;;;;;;;0.70;0.70;;;8.60;99.90;;;;;;5074731;28;20279;-88
2024/03/02 01:42:37;;;;;;;0.30;0.30;;;8.70;99.90;;;;;;5057296;28;20221;-86
2024/03/02 01:45:05;;;;;;;0.20;0.20;;;8.70;99.90;;;;;;5074984;28;20221;-84
2024/03/02 01:47:32;;;;;;;0.40;0.37;;;8.80;99.90;;;;;;5057651;28;20284;-85
2024/03/02 01:49:58;;;;;;;0.50;0.50;;;8.80;99.90;;;;;;5038792;28;20651;-85
2024/03/02 01:52:24;;;;;;;0.40;0.40;;;8.80;99.90;;;;;;5037452;28;20244;-85
2024/03/02 01:54:50;;;;;;;0.70;0.70;;;9.00;99.90;;;;;;5054497;28;20694;-86
2024/03/02 01:57:16;;;;;;;0.40;0.40;;;9.10;99.90;;;;;;5020623;28;20344;-88
2024/03/02 01:59:41;;;;;;;1.73;0.93;;;9.20;99.90;;;;;;5020538;28;20205;-84
2024/03/02 02:02:07;;;;;;;2.33;1.40;;;9.20;99.90;;;;;;5020534;28;20198;-85
2024/03/02 02:04:33;;;;;;;0.50;0.50;;;9.20;99.90;;;;;;5036451;28;20299;-86
2024/03/02 02:06:59;;;;;;;0.23;0.23;;;9.20;99.90;;;;;;5036480;28;20245;-86
2024/03/02 02:09:25;;;;;;;0.53;0.47;;;9.20;99.90;;;;;;5020329;28;20217;-84
2024/03/02 02:11:52;;;;;;;0.50;0.50;;;9.30;99.90;;;;;;5020057;28;20186;-84
2024/03/02 02:14:18;;;;;;;0.53;0.43;;;9.30;99.90;;;;;;5054956;28;20221;-87
2024/03/02 02:16:44;;;;;;;0.43;0.43;;;9.30;99.90;;;;;;5020288;28;20226;-87
2024/03/02 02:19:10;;;;;;;0.30;0.30;;;9.30;99.90;;;;;;5020200;28;20230;-84
2024/03/02 02:21:36;;;;;;;0.30;0.30;;;9.40;99.90;;;;;;5036516;28;20761;-85
2024/03/02 02:24:05;;;;;;;0.30;0.30;;;9.40;99.90;;;;;;5053427;28;20238;-84
2024/03/02 02:26:30;;;;;;;0.13;0.13;;;9.40;99.90;;;;;;5037524;28;20642;-84
2024/03/02 02:28:56;;;;;;;0.47;0.47;;;9.50;99.90;;;;;;5036151;28;20279;-85
2024/03/02 02:31:22;;;;;;;0.40;0.40;;;9.40;99.90;;;;;;5020129;28;20248;-86
2024/03/02 02:33:48;;;;;;;0.30;0.30;;;9.40;99.90;;;;;;5019739;28;20672;-85
2024/03/02 02:36:14;;;;;;;0.17;0.17;;;9.40;99.90;;;;;;5036248;28;20684;-85
2024/03/02 02:38:44;;;;;;;0.73;0.73;;;9.50;99.90;;;;;;5019504;28;20205;-84
2024/03/02 02:41:10;;;;;;;0.60;0.60;;;9.50;99.90;;;;;;5036499;28;20265;-87
2024/03/02 02:43:35;;;;;;;1.23;0.83;;;9.40;99.90;;;;;;5019353;28;20305;-85
2024/03/02 02:46:01;;;;;;;0.30;0.30;;;9.40;99.90;;;;;;5019428;28;20225;-84
2024/03/02 02:48:27;;;;;;;0.20;0.20;;;9.50;99.90;;;;;;5041404;28;20245;-84
2024/03/02 02:50:52;;;;;;;1.57;1.47;;;9.40;99.90;;;;;;5039226;28;20705;-84
2024/03/02 02:53:19;;;;;;;0.83;0.77;;;9.40;99.90;;;;;;5056424;28;20193;-84
2024/03/02 02:55:44;;;;;;;0.20;0.20;;;9.30;99.90;;;;;;5056004;28;20331;-85
2024/03/02 02:58:10;;;;;;;0.57;0.57;;;9.30;99.90;;;;;;5039264;28;20300;-84
2024/03/02 03:00:37;;;;;;;0.77;0.77;;;9.30;99.90;;;;;;5039053;28;20225;-83
2024/03/02 03:03:03;;;;;;;0.50;0.50;;;9.30;99.90;;;;;;5055237;28;20233;-84
2024/03/02 03:05:28;;;;;;;1.43;0.43;;;9.30;99.90;;;;;;5056138;28;20193;-84
2024/03/02 03:07:54;;;;;;;0.50;0.50;;;9.30;99.90;;;;;;5038714;28;20225;-83
2024/03/02 03:10:22;;;;;;;0.40;0.40;;;9.30;99.90;;;;;;5038849;28;20696;-84
2024/03/02 03:12:47;;;;;;;0.80;0.80;;;9.30;99.90;;;;;;5073038;28;20216;-83
2024/03/02 03:15:14;;;;;;;0.80;0.67;;;9.30;99.90;;;;;;5055542;28;20248;-83
2024/03/02 03:17:40;;;;;;;3.70;1.03;;;9.20;99.90;;;;;;5039549;28;20592;-86
2024/03/02 03:20:09;;;;;;;0.77;0.77;;;9.20;99.90;;;;;;5056033;28;20218;-83
2024/03/02 03:22:36;;;;;;;0.40;0.40;;;9.20;99.90;;;;;;5051597;28;20237;-84
2024/03/02 03:25:03;;;;;;;0.67;0.67;;;9.20;99.90;;;;;;5051666;28;20229;-86
2024/03/02 03:27:29;;;;;;;0.57;0.57;;;9.20;99.90;;;;;;5072388;28;20308;-85
2024/03/02 03:29:55;;;;;;;0.40;0.40;;;9.20;99.90;;;;;;5072919;28;20217;-84
2024/03/02 03:32:21;;;;;;;0.40;0.40;;;9.20;99.90;;;;;;5054270;28;20190;-84
2024/03/02 03:34:48;;;;;;;0.23;0.23;;;9.10;99.90;;;;;;5051893;28;20230;-85
2024/03/02 03:37:14;;;;;;;0.40;0.40;;;9.10;99.90;;;;;;5036145;28;20233;-84
2024/03/02 03:39:42;;;;;;;0.80;0.80;;;9.00;99.90;;;;;;5072869;28;20293;-84
2024/03/02 03:42:07;;;;;;;0.30;0.30;;;9.00;99.90;;;;;;5034887;28;20813;-86
2024/03/02 03:44:34;;;;;;;0.47;0.47;;;9.00;99.90;;;;;;5035423;28;20261;-85
2024/03/02 03:47:01;;;;;;;0.47;0.47;;;9.00;99.90;;;;;;5034808;28;20575;-85
2024/03/02 03:49:27;;;;;;;0.93;0.43;;;9.00;99.90;;;;;;5042218;28;20238;-87
2024/03/02 03:51:53;;;;;;;0.40;0.40;;;9.00;99.90;;;;;;5018476;28;20620;-83
2024/03/02 03:54:19;;;;;;;0.50;0.50;;;9.00;99.90;;;;;;5034548;28;20272;-84
2024/03/02 03:56:44;;;;;;;0.30;0.30;;;9.00;99.90;;;;;;5034680;28;20189;-85
2024/03/02 03:59:10;;;;;;;0.57;0.57;;;9.00;99.90;;;;;;5018691;28;20561;-84
2024/03/02 04:01:37;;;;;;;0.40;0.40;;;9.10;99.90;;;;;;5034543;28;20232;-84
2024/03/02 04:04:03;;;;;;;0.93;0.93;;;9.10;99.90;;;;;;5018553;28;20277;-83
2024/03/02 04:06:29;;;;;;;0.43;0.43;;;9.00;99.90;;;;;;5052337;28;20237;-83
2024/03/02 04:08:55;;;;;;;1.50;0.33;;;9.00;99.90;;;;;;5034509;28;21235;-85
2024/03/02 04:11:21;;;;;;;0.60;0.60;;;9.00;99.90;;;;;;5035233;28;20194;-85
2024/03/02 04:13:47;;;;;;;0.40;0.40;;;8.90;99.90;;;;;;5034822;28;20340;-85
2024/03/02 04:16:13;;;;;;;0.20;0.20;;;8.80;99.90;;;;;;5034543;28;20305;-83
2024/03/02 04:18:39;;;;;;;1.80;0.77;;;8.80;99.90;;;;;;5018090;28;20261;-84
2024/03/02 04:21:05;;;;;;;0.30;0.30;;;8.70;99.90;;;;;;5033853;28;20226;-84
2024/03/02 04:23:31;;;;;;;0.30;0.30;;;8.70;99.90;;;;;;5035116;28;20604;-84
2024/03/02 04:25:57;;;;;;;0.40;0.40;;;8.60;99.90;;;;;;5034664;28;20214;-86
2024/03/02 04:28:22;;;;;;;0.40;0.40;;;8.60;99.90;;;;;;5034390;28;20261;-83
2024/03/02 04:30:48;;;;;;;0.30;0.30;;;8.40;99.90;;;;;;5017714;28;20592;-84
2024/03/02 04:33:14;;;;;;;0.40;0.40;;;8.40;99.90;;;;;;5017858;28;20218;-84
2024/03/02 04:35:39;;;;;;;0.10;0.10;;;8.30;99.90;;;;;;5018114;28;20233;-84
2024/03/02 04:38:05;;;;;;;0.20;0.20;;;8.30;99.90;;;;;;5035000;28;20197;-85
2024/03/02 04:40:32;;;;;;;0.20;0.20;;;8.20;99.90;;;;;;5034528;28;20610;-83
2024/03/02 04:42:59;;;;;;;0.20;0.20;;;8.20;99.90;;;;;;5034274;28;20236;-83
2024/03/02 04:45:27;;;;;;;0.30;0.30;;;8.20;99.90;;;;;;5034823;28;20357;-85
2024/03/02 04:47:52;;;;;;;0.27;0.27;;;8.10;99.90;;;;;;5022097;28;20276;-85
2024/03/02 04:50:19;;;;;;;0.10;0.10;;;8.10;99.90;;;;;;5057296;28;20310;-86
2024/03/02 04:52:44;;;;;;;0.20;0.20;;;8.10;99.90;;;;;;5041664;28;20221;-86
2024/03/02 04:55:24;;;;;;;0.83;0.67;;;8.10;99.90;;;;;;5058284;28;20229;-83
2024/03/02 04:57:54;;;;;;;0.20;0.20;;;8.10;99.90;;;;;;5060085;28;20589;-85
2024/03/02 05:00:20;;;;;;;0.20;0.20;;;8.00;99.90;;;;;;5057856;28;20688;-84
2024/03/02 05:02:46;;;;;;;0.20;0.20;;;8.00;99.90;;;;;;5040867;28;20312;-85
2024/03/02 05:05:12;;;;;;;0.20;0.20;;;8.00;99.90;;;;;;5058365;28;20233;-84
2024/03/02 05:07:38;;;;;;;0.30;0.30;;;8.00;99.90;;;;;;5040937;28;20248;-84
2024/03/02 05:10:04;;;;;;;0.67;0.67;;;7.90;99.90;;;;;;5040594;28;20228;-84
2024/03/02 05:15:12;;;;;;;0.20;0.20;;;8.00;99.90;;;;;;5059495;28;20225;-86
2024/03/02 05:17:38;;;;;;;0.20;0.20;;;7.90;99.90;;;;;;5057206;28;20233;-87
2024/03/02 05:20:05;;;;;;;0.30;0.30;;;7.90;99.90;;;;;;5041318;28;20254;-84
2024/03/02 05:22:31;;;;;;;0.27;0.27;;;7.90;99.90;;;;;;5057336;28;20620;-87
2024/03/02 05:24:58;;;;;;;0.30;0.30;;;7.90;99.90;;;;;;5040599;28;20221;-86
2024/03/02 05:27:24;;;;;;;0.20;0.20;;;7.80;99.90;;;;;;5057283;28;20213;-85
2024/03/02 05:29:50;;;;;;;1.00;0.70;;;7.70;99.90;;;;;;5040536;28;20277;-84
2024/03/02 05:32:15;;;;;;;0.20;0.20;;;7.60;99.90;;;;;;5057658;28;20189;-85
2024/03/02 05:34:41;;;;;;;0.20;0.20;;;7.60;99.90;;;;;;5057336;28;20213;-85
2024/03/02 05:37:07;;;;;;;0.20;0.20;;;7.60;99.90;;;;;;5057123;28;20249;-85
2024/03/02 05:39:33;;;;;;;0.30;0.30;;;7.50;99.90;;;;;;5040316;28;20274;-83
2024/03/02 05:41:58;;;;;;;0.30;0.30;;;7.50;99.90;;;;;;5057113;28;20375;-85
2024/03/02 05:44:24;;;;;;;0.10;0.10;;;7.40;99.90;;;;;;5057272;28;20229;-85
2024/03/02 05:46:50;;;;;;;0.20;0.20;;;7.30;99.90;;;;;;5040493;28;20221;-87
2024/03/02 05:49:16;;;;;;;0.20;0.20;;;7.30;99.90;;;;;;5029852;28;20241;-88
2024/03/02 05:51:41;;;;;;;0.20;0.20;;;7.30;99.90;;;;;;5020482;28;20217;-85
2024/03/02 05:54:07;;;;;;;0.73;0.73;;;7.20;99.90;;;;;;5037115;28;20221;-83
2024/03/02 05:56:33;;;;;;;0.23;0.23;;;7.20;99.90;;;;;;5036905;28;20713;-85
2024/03/02 05:59:14;;;;;;;0.43;0.43;;;7.10;99.90;;;;;;5035705;28;20599;-86
2024/03/02 06:01:43;;;;;;;0.93;0.77;;;7.00;99.90;;;;;;5054593;28;20340;-84
2024/03/02 06:04:13;;;;;;;0.40;0.40;;;6.90;99.90;;;;;;5019956;28;20230;-86
2024/03/02 06:06:39;;;;;;;0.20;0.20;;;6.80;99.90;;;;;;5036813;28;20226;-84
2024/03/02 06:09:11;;;;;;;0.30;0.30;;;6.80;99.90;;;;;;5020246;28;20688;-87
2024/03/02 06:11:39;;;;;;;0.30;0.30;;;6.70;99.90;;;;;;5054485;28;20240;-84
2024/03/02 06:14:06;;;;;;;0.20;0.20;;;6.60;99.90;;;;;;5054509;28;20266;-86
2024/03/02 06:16:32;;;;;;;0.87;0.87;;;6.50;99.90;;;;;;5053919;28;20301;-84
2024/03/02 06:18:58;;;;;;;0.30;0.30;;;6.50;99.90;;;;;;5019863;28;20229;-86
2024/03/02 06:21:24;;;;;;;0.50;0.50;;;6.40;99.90;;;;;;5053456;28;20244;-86
2024/03/02 06:23:50;;;;;;;0.40;0.40;;;6.40;99.90;;;;;;5053862;28;20229;-84
2024/03/02 06:26:16;;;;;;;0.20;0.20;;;6.40;99.90;;;;;;5037185;28;20534;-85
2024/03/02 06:28:42;;;;;;;0.10;0.10;;;6.40;99.90;;;;;;5019524;28;20225;-84
2024/03/02 06:31:08;;;;;;;0.20;0.20;;;6.40;99.90;;;;;;5019695;28;20218;-85
2024/03/02 06:33:34;;;;;;;0.73;0.30;;;6.40;99.90;;;;;;5019988;28;20218;-84
2024/03/02 06:36:01;;;;;;;0.17;0.17;;;6.40;99.90;;;;;;5053732;28;20300;-83
2024/03/02 06:38:27;;;;;;;0.30;0.30;;;6.50;99.90;;;;;;5054405;28;20195;-86
2024/03/02 06:40:53;;;;;;;0.20;0.20;;;6.60;99.90;;;;;;5019441;28;20600;-87
2024/03/02 06:43:23;;;;;;;0.30;0.30;;;6.80;99.90;;;;;;5036112;28;20678;-83
2024/03/02 06:45:50;;;;;;;0.30;0.30;;;7.10;99.90;;;;;;5036658;28;20279;-88
2024/03/02 06:48:19;;;;;;;0.33;0.33;;;7.40;99.90;;;;;;5021496;28;20240;-85
2024/03/02 06:50:47;;;;;;;0.50;0.43;;;7.30;99.90;;;;;;5039430;28;20186;-85
2024/03/02 06:53:13;;;;;;;0.17;0.17;;;7.10;99.90;;;;;;5039658;28;20596;-85
2024/03/02 06:55:39;;;;;;;0.37;0.37;;;7.00;99.90;;;;;;5038898;28;20681;-86
2024/03/02 06:58:05;;;;;;;5.67;0.60;;;7.10;99.90;;;;;;5055522;28;20811;-85
2024/03/02 07:00:31;;;;;;;0.30;0.30;;;7.40;99.90;;;;;;5038873;28;20244;-85
2024/03/02 07:02:56;;;;;;;0.40;0.40;;;7.80;99.90;;;;;;5055558;28;20248;-84
2024/03/02 07:05:22;;;;;;;0.30;0.30;;;8.10;99.90;;;;;;5039568;28;20193;-86
2024/03/02 07:07:48;;;;;;;0.20;0.20;;;8.40;99.90;;;;;;5054907;28;20769;-84
2024/03/02 07:10:14;;;;;;;0.10;0.10;;;8.50;99.90;;;;;;5038041;28;20750;-86
2024/03/02 07:12:39;;;;;;;0.40;0.40;;;8.30;99.90;;;;;;5072745;28;20585;-85
2024/03/02 07:17:32;;;;;;;0.10;0.10;;;8.10;99.90;;;;;;5056344;28;20202;-88
2024/03/02 07:19:58;;;;;;;0.20;0.20;;;7.90;99.90;;;;;;5072406;28;20216;-86
2024/03/02 07:22:24;;;;;;;0.20;0.20;;;7.90;99.90;;;;;;5054991;28;20296;-85
2024/03/02 07:24:50;;;;;;;0.40;0.40;;;8.00;99.90;;;;;;5054865;28;20225;-88
2024/03/02 07:27:17;;;;;;;0.20;0.20;;;8.20;99.90;;;;;;5037942;28;20223;-86
2024/03/02 07:29:43;;;;;;;0.37;0.37;;;8.30;99.90;;;;;;5072505;28;20288;-86
2024/03/02 07:32:10;;;;;;;0.23;0.23;;;8.50;99.90;;;;;;5038584;28;20652;-87
2024/03/02 07:34:37;;;;;;;0.30;0.30;;;8.50;99.90;;;;;;5038312;28;20220;-88
2024/03/02 07:37:03;;;;;;;0.30;0.30;;;8.60;99.90;;;;;;5054788;28;20232;-87
2024/03/02 07:39:29;;;;;;;0.40;0.40;;;8.60;99.90;;;;;;5072678;28;20274;-88
2024/03/02 07:41:55;;;;;;;0.43;0.43;;;8.80;99.90;;;;;;5054332;28;20189;-87
2024/03/02 07:44:21;;;;;;;0.87;0.60;;;8.50;99.90;;;;;;5038548;28;20224;-85
2024/03/02 07:46:49;;;;;;;0.30;0.30;;;8.40;99.90;;;;;;5054406;28;20228;-88
2024/03/02 07:49:16;;;;;;;0.30;0.30;;;8.40;99.90;;;;;;5054216;28;20228;-86
2024/03/02 07:51:42;;;;;;;0.67;0.50;;;8.60;99.90;;;;;;5038201;28;20221;-86
2024/03/02 07:54:08;;;;;;;0.77;0.40;;;9.30;99.90;;;;;;5054470;28;20724;-89
2024/03/02 07:56:34;;;;;;;0.60;0.60;;;9.90;99.90;;;;;;5038916;28;20232;-86
2024/03/02 07:59:01;;;;;;;0.20;0.20;;;10.30;99.90;;;;;;5054486;28;20221;-86
2024/03/02 08:01:31;;;;;;;0.40;0.40;;;10.60;99.90;;;;;;5037788;28;20217;-84
2024/03/02 08:04:03;;;;;;;0.30;0.30;;;11.00;99.90;;;;;;5071967;28;20228;-83
2024/03/02 08:06:30;;;;;;;0.63;0.20;;;11.10;99.90;;;;;;5037909;28;20228;-89
2024/03/02 08:08:59;;;;;;;0.20;0.20;;;11.00;99.90;;;;;;5054332;28;20192;-91
2024/03/02 08:11:25;;;;;;;0.20;0.20;;;11.10;99.90;;;;;;5071154;28;20648;-90
2024/03/02 08:13:52;;;;;;;0.20;0.20;;;10.90;99.90;;;;;;5054506;28;20225;-89
2024/03/02 08:16:21;;;;;;;0.40;0.40;;;10.60;99.90;;;;;;5053696;28;20312;-88
2024/03/02 08:18:48;;;;;;;0.40;0.40;;;10.50;99.90;;;;;;5055225;28;20225;-88
2024/03/02 08:21:14;;;;;;;3.57;0.30;;;10.80;99.90;;;;;;5070980;28;20224;-88
2024/03/02 08:23:41;;;;;;;0.30;0.30;;;11.10;99.90;;;;;;5037858;28;20220;-86
2024/03/02 08:26:11;;;;;;;0.20;0.20;;;11.20;99.90;;;;;;5054105;28;20689;-86
2024/03/02 08:28:45;;;;;;;0.10;0.10;;;11.00;99.90;;;;;;5037760;28;20221;-88
2024/03/02 08:31:14;;;;;;;0.60;0.50;;;11.10;99.90;;;;;;5070806;28;20249;-89
2024/03/02 08:33:40;;;;;;;0.30;0.30;;;11.30;99.90;;;;;;5053837;28;20297;-86
2024/03/02 08:36:06;;;;;;;0.43;0.43;;;11.10;99.90;;;;;;5053850;28;20232;-86
2024/03/02 10:44:43;;;;;;;1.20;0.60;;;11.50;99.90;;;;;;6301376;22;1362521;-88
2024/03/02 10:47:25;;;;;;;0.40;0.40;;;11.10;99.90;;;;;;6228682;22;20717;-89
2024/03/02 10:49:52;;;;;;;0.57;0.47;;;11.60;1.00;;;;;;6253399;22;20202;-91
2024/03/02 10:52:18;;;;;;;2.83;0.37;;;12.20;1.00;;;;;;6228068;22;20208;-90
2024/03/02 10:54:44;;;;;;;0.60;0.60;;;12.10;99.90;;;;;;6202884;22;20215;-89
2024/03/02 10:57:13;;;;;;;0.20;0.20;;;12.40;49.40;;;;;;6203004;22;20199;-89
2024/03/02 11:00:00;;;;;;;1.30;1.30;;;12.60;1.00;;;;;;6253016;22;20164;-89
2024/03/02 11:02:28;;;;;;;0.30;0.30;;;12.30;1.00;;;;;;6230828;22;20176;-90
2024/03/02 11:04:55;;;;;;;0.20;0.20;;;12.10;99.90;;;;;;6252834;22;20204;-89
2024/03/02 11:07:24;;;;;;;0.33;0.33;;;12.00;58.70;;;;;;6227456;22;20253;-89
2024/03/02 11:10:08;;;;;;;0.30;0.30;;;12.60;99.90;;;;;;6228700;22;20204;-90
2024/03/02 11:12:43;;;;;;;0.27;0.27;;;12.80;88.50;;;;;;6228776;22;20263;-90
2024/03/02 11:15:15;;;;;;;0.30;0.30;;;13.00;1.00;;;;;;6252984;22;20656;-91
2024/03/02 11:17:44;;;;;;;0.50;0.50;;;13.00;99.90;;;;;;6252850;22;20161;-90
2024/03/02 11:20:10;;;;;;;0.40;0.40;;;12.90;27.60;;;;;;6228870;22;20649;-90
2024/03/02 11:22:37;;;;;;;0.30;0.30;;;12.60;1.00;;;;;;6227450;22;20544;-90
2024/03/02 11:25:05;;;;;;;0.40;0.40;;;12.10;96.40;;;;;;6228153;22;20203;-90
2024/03/02 11:28:05;;;;;;;0.20;0.20;;;12.00;1.00;;;;;;6203478;22;20311;-91
2024/03/02 11:30:32;;;;;;;1.20;0.57;;;11.90;1.00;;;;;;6214900;22;20203;-90
2024/03/02 11:32:58;;;;;;;0.30;0.30;;;11.90;99.90;;;;;;6252954;22;20548;-90
2024/03/02 11:35:25;;;;;;;0.30;0.30;;;12.60;1.00;;;;;;6228253;22;20194;-89
2024/03/02 11:37:52;;;;;;;1.33;1.30;;;12.20;99.90;;;;;;6251951;22;20215;-89
2024/03/02 11:53:48;;;;;;;0.50;0.50;;;12.70;1.00;;;;;;6225677;22;1343287;-88
2024/03/02 11:56:15;;;;;;;0.30;0.30;;;12.60;1.00;;;;;;6104401;23;20182;-88
2024/03/02 11:58:42;;;;;;;0.20;0.20;;;12.80;1.00;;;;;;6103451;23;20286;-88
2024/03/02 12:01:11;;;;;;;0.40;0.40;;;12.80;1.00;;;;;;6103079;23;20203;-89
2024/03/02 12:03:39;;;;;;;0.30;0.30;;;12.70;99.90;;;;;;6103147;23;20238;-88
2024/03/02 12:06:21;;;;;;;1.10;0.37;;;12.30;54.70;;;;;;6134825;23;20647;-89
2024/03/02 12:08:52;;;;;;;0.30;0.30;;;12.10;1.00;;;;;;6134136;23;20559;-89
2024/03/02 12:11:17;;;;;;;0.40;0.40;;;12.30;1.00;;;;;;6134660;23;20159;-88
2024/03/02 12:13:54;;;;;;;0.10;0.10;;;12.50;1.00;;;;;;6157082;23;20725;-89
2024/03/02 12:16:32;;;;;;;0.77;0.77;;;12.40;1.00;;;;;;6084923;23;20237;-89
2024/03/02 12:18:59;;;;;;;0.30;0.30;;;12.40;1.00;;;;;;6090833;23;20246;-88
2024/03/02 12:21:25;;;;;;;0.30;0.30;;;12.40;99.90;;;;;;6127915;23;20202;-90
2024/03/02 12:23:53;;;;;;;1.90;0.30;;;13.00;1.00;;;;;;6103470;23;20171;-88
2024/03/02 12:26:19;;;;;;;1.00;1.00;;;13.10;1.00;;;;;;6103840;23;20164;-88
2024/03/02 12:28:45;;;;;;;0.50;0.50;;;13.00;99.90;;;;;;6148305;23;20613;-88
2024/03/02 12:34:47;;;;;;;0.97;0.80;;;12.50;8.50;;;;;;6131554;23;20211;-88
2024/03/02 12:37:14;;;;;;;0.30;0.30;;;13.10;91.10;;;;;;6126826;23;20282;-88
2024/03/02 12:39:39;;;;;;;0.60;0.60;;;12.80;1.00;;;;;;6119461;23;20212;-89
2024/03/02 12:42:05;;;;;;;1.33;1.20;;;12.70;1.00;;;;;;6079969;23;20262;-88
2024/03/02 12:44:31;;;;;;;1.60;0.80;;;12.50;1.00;;;;;;6103901;23;20239;-90
2024/03/02 12:46:57;;;;;;;0.67;0.67;;;12.60;1.00;;;;;;6104378;23;20199;-88
2024/03/02 12:49:23;;;;;;;0.30;0.30;;;12.70;1.00;;;;;;6110693;23;20207;-88
2024/03/02 12:51:52;;;;;;;0.80;0.70;;;12.60;1.00;;;;;;6121244;23;20199;-88
2024/03/02 12:54:18;;;;;;;0.97;0.83;;;12.60;1.00;;;;;;6121003;23;21330;-88
2024/03/02 12:56:46;;;;;;;0.40;0.40;;;12.60;1.00;;;;;;6121177;23;20610;-88
2024/03/02 12:59:20;;;;;;;0.40;0.40;;;12.80;99.90;;;;;;6096895;23;20200;-90
2024/03/02 13:02:18;;;;;;;0.37;0.37;;;12.60;99.90;;;;;;6141834;23;20238;-89
2024/03/02 13:04:44;;;;;;;2.23;0.83;;;12.60;99.90;;;;;;6123258;23;20215;-86
2024/03/02 13:07:13;;;;;;;0.30;0.30;;;12.60;99.90;;;;;;6085404;23;21024;-87
2024/03/02 13:09:40;;;;;;;0.67;0.57;;;12.60;99.90;;;;;;6120286;23;20729;-87
2024/03/02 13:12:06;;;;;;;0.30;0.30;;;12.50;99.90;;;;;;6096171;23;20199;-88
2024/03/02 13:14:35;;;;;;;0.20;0.20;;;12.30;99.90;;;;;;6097062;23;20176;-88
2024/03/02 13:17:04;;;;;;;1.60;1.50;;;12.20;95.80;;;;;;6118548;23;20208;-88
2024/03/02 13:19:30;;;;;;;0.30;0.30;;;12.20;50.60;;;;;;6118910;23;20215;-89
2024/03/02 13:21:57;;;;;;;0.30;0.30;;;12.20;44.30;;;;;;6108996;23;20946;-88
2024/03/02 13:24:25;;;;;;;0.10;0.10;;;12.40;57.20;;;;;;6119902;23;20200;-87
2024/03/02 13:26:55;;;;;;;0.30;0.30;;;12.60;34.30;;;;;;6123456;23;20227;-89
2024/03/02 13:29:21;;;;;;;0.20;0.20;;;12.60;4.10;;;;;;6125318;23;20176;-89
2024/03/02 13:31:48;;;;;;;0.37;0.37;;;12.60;2.90;;;;;;6125279;23;20218;-89
2024/03/02 13:34:14;;;;;;;0.20;0.20;;;12.30;1.00;;;;;;6124892;23;20692;-89
2024/03/02 13:36:40;;;;;;;0.20;0.20;;;12.40;1.00;;;;;;6125159;23;20206;-87
2024/03/02 13:39:05;;;;;;;0.20;0.20;;;12.20;1.00;;;;;;6124233;23;20218;-88
2024/03/02 13:41:32;;;;;;;0.20;0.20;;;12.40;1.00;;;;;;6150095;23;20255;-87
2024/03/02 13:44:01;;;;;;;0.40;0.40;;;12.50;1.00;;;;;;6124757;23;20214;-87
2024/03/02 13:46:27;;;;;;;0.40;0.40;;;12.40;1.00;;;;;;6124957;23;20317;-88
2024/03/02 13:48:54;;;;;;;0.30;0.30;;;12.50;1.00;;;;;;6125527;23;20199;-89
2024/03/02 13:51:19;;;;;;;0.20;0.20;;;12.60;1.00;;;;;;6125732;23;20628;-87
2024/03/02 13:53:45;;;;;;;0.20;0.20;;;12.60;1.00;;;;;;6156035;23;20198;-87
2024/03/02 13:56:11;;;;;;;2.07;0.60;;;12.70;1.00;;;;;;6180670;23;20600;-89
2024/03/02 13:58:37;;;;;;;0.40;0.40;;;12.60;1.00;;;;;;6179894;23;20750;-87
2024/03/02 14:01:07;;;;;;;2.43;0.50;;;12.60;1.00;;;;;;6166386;23;20226;-87
2024/03/02 14:03:33;;;;;;;0.30;0.30;;;12.60;1.00;;;;;;6154055;23;20234;-87
2024/03/02 14:05:58;;;;;;;0.57;0.57;;;12.60;1.00;;;;;;6154291;23;20202;-89
2024/03/02 14:08:24;;;;;;;0.67;0.67;;;12.60;1.00;;;;;;6154681;23;20181;-88
2024/03/02 14:10:50;;;;;;;1.17;0.40;;;12.70;1.00;;;;;;6154291;23;20275;-88
2024/03/02 14:13:16;;;;;;;0.20;0.20;;;12.80;1.00;;;;;;6155073;23;20731;-87
2024/03/02 14:15:42;;;;;;;0.23;0.23;;;12.90;1.00;;;;;;6154541;23;20237;-88
2024/03/02 14:18:10;;;;;;;0.20;0.20;;;12.80;1.00;;;;;;6155852;23;21074;-87
2024/03/02 14:20:37;;;;;;;0.30;0.30;;;12.80;1.00;;;;;;6180641;23;20194;-87
2024/03/02 14:23:03;;;;;;;0.27;0.27;;;12.80;1.00;;;;;;6154712;23;20186;-87
2024/03/02 14:25:33;;;;;;;4.53;0.73;;;12.90;1.00;;;;;;6153821;23;20204;-88
2024/03/02 14:28:00;;;;;;;0.27;0.27;;;13.00;99.90;;;;;;6154894;23;20207;-89
2024/03/02 14:30:25;;;;;;;0.60;0.60;;;13.00;99.90;;;;;;6154172;23;20201;-88
2024/03/02 14:32:51;;;;;;;0.20;0.20;;;12.90;99.90;;;;;;6154003;23;20170;-88
2024/03/02 14:35:18;;;;;;;0.50;0.50;;;13.00;99.90;;;;;;6154814;23;20613;-87
2024/03/02 14:37:44;;;;;;;1.17;0.20;;;13.00;99.90;;;;;;6155086;23;20672;-86
2024/03/02 14:40:11;;;;;;;2.60;0.57;;;13.00;99.90;;;;;;6153846;23;20246;-86
2024/03/02 14:42:37;;;;;;;0.93;0.63;;;12.90;99.90;;;;;;6151049;23;20912;-90
2024/03/02 14:45:04;;;;;;;0.20;0.20;;;13.00;99.90;;;;;;6151796;23;20230;-88
2024/03/02 14:47:33;;;;;;;0.40;0.40;;;13.00;99.90;;;;;;6153737;23;20179;-86
2024/03/02 14:50:06;;;;;;;1.13;0.30;;;12.90;99.90;;;;;;6152902;23;20660;-87
2024/03/02 14:52:34;;;;;;;0.20;0.20;;;12.90;99.90;;;;;;6154374;23;20582;-87
2024/03/02 14:55:00;;;;;;;0.40;0.40;;;12.80;99.90;;;;;;6177582;23;20727;-88
2024/03/02 14:57:29;;;;;;;0.10;0.10;;;12.80;99.90;;;;;;6152574;23;20736;-88
2024/03/02 14:59:55;;;;;;;0.33;0.33;;;12.80;99.90;;;;;;6154150;23;20540;-87
2024/03/02 15:02:21;;;;;;;0.60;0.53;;;12.80;1.00;;;;;;6154237;23;20249;-88
2024/03/02 15:04:48;;;;;;;0.20;0.20;;;12.70;1.00;;;;;;6153272;23;20248;-88
2024/03/02 15:07:14;;;;;;;0.30;0.30;;;12.50;1.00;;;;;;6139510;23;20222;-88
2024/03/02 15:09:40;;;;;;;0.30;0.23;;;12.50;1.00;;;;;;6152918;23;20666;-86
2024/03/02 15:12:09;;;;;;;0.70;0.70;;;12.30;1.00;;;;;;6152900;23;20195;-87
2024/03/02 15:14:38;;;;;;;0.40;0.40;;;12.10;1.00;;;;;;6153376;23;20600;-88
2024/03/02 15:17:04;;;;;;;1.13;0.57;;;12.00;1.00;;;;;;6152348;23;20255;-86
2024/03/02 15:19:30;;;;;;;0.63;0.63;;;11.80;1.00;;;;;;6151691;23;20214;-87
2024/03/02 15:21:55;;;;;;;0.40;0.40;;;11.80;1.00;;;;;;6152919;23;20221;-86
2024/03/02 15:24:21;;;;;;;1.03;0.50;;;11.70;1.00;;;;;;6177434;23;20531;-87